Time;durP1;ratioP1;P1;durP2;ratioP2;P2;SDS_P1;SDS_P2;PMS_P1;PMS_P2;Temp;Humidity;BMP_temperature;BMP_pressure;BME280_temperature;BME280_humidity;BME280_pressure;Samples;Min_cycle;Max_cycle;Signal;HPM_P1;HPM_P2
2023/12/25 00:00:42;;;;;;;5.27;5.07;;;11.60;21.30;;;;;;5096313;28;20570;-66
2023/12/25 00:03:08;;;;;;;5.60;5.33;;;11.60;21.50;;;;;;5096738;28;20194;-66
2023/12/25 00:05:33;;;;;;;6.07;5.77;;;11.60;21.60;;;;;;5096433;28;20201;-66
2023/12/25 00:07:59;;;;;;;5.17;4.87;;;11.60;21.50;;;;;;5096653;28;20434;-66
2023/12/25 00:10:25;;;;;;;5.33;5.13;;;11.60;21.50;;;;;;5095807;28;20170;-66
2023/12/25 00:12:50;;;;;;;6.00;5.80;;;11.50;21.40;;;;;;5096437;28;20178;-66
2023/12/25 00:15:16;;;;;;;5.77;5.50;;;11.60;21.50;;;;;;5114924;28;20174;-66
2023/12/25 00:17:42;;;;;;;5.50;5.30;;;11.50;21.40;;;;;;5096305;28;20638;-66
2023/12/25 00:20:07;;;;;;;5.90;5.47;;;11.60;21.70;;;;;;5092094;28;20273;-66
2023/12/25 00:22:33;;;;;;;6.10;5.80;;;11.60;21.30;;;;;;5096165;28;20213;-66
2023/12/25 00:24:58;;;;;;;6.07;5.87;;;11.50;21.50;;;;;;5096486;28;20251;-66
2023/12/25 00:27:24;;;;;;;6.57;6.27;;;11.40;21.60;;;;;;5097308;28;20181;-66
2023/12/25 00:29:50;;;;;;;5.73;5.53;;;11.40;21.30;;;;;;5085680;28;20213;-67
2023/12/25 00:32:16;;;;;;;6.57;6.20;;;11.40;21.30;;;;;;5111729;27;20191;-65
2023/12/25 00:34:42;;;;;;;5.80;5.60;;;11.50;21.50;;;;;;5090588;28;20178;-55
2023/12/25 00:37:08;;;;;;;6.77;6.37;;;11.50;20.90;;;;;;5088732;28;20322;-53
2023/12/25 00:39:34;;;;;;;4.80;4.70;;;11.40;21.30;;;;;;5095717;28;20827;-54
2023/12/25 00:41:59;;;;;;;6.07;5.77;;;11.40;20.70;;;;;;5093780;28;20467;-55
2023/12/25 00:44:25;;;;;;;6.10;5.90;;;11.50;20.70;;;;;;5091645;28;20173;-55
2023/12/25 00:46:51;;;;;;;5.60;5.40;;;11.60;20.60;;;;;;5095555;28;20274;-55
2023/12/25 00:49:18;;;;;;;5.97;5.67;;;11.50;20.30;;;;;;5093990;28;20173;-56
2023/12/25 00:51:44;;;;;;;5.07;4.83;;;11.50;20.50;;;;;;5103429;27;20173;-66
2023/12/25 00:54:09;;;;;;;5.10;4.90;;;11.50;20.60;;;;;;5094629;28;20808;-66
2023/12/25 00:56:35;;;;;;;5.63;5.43;;;11.50;19.90;;;;;;5094433;28;20345;-67
2023/12/25 00:59:00;;;;;;;5.60;5.40;;;11.60;20.20;;;;;;5094305;28;20197;-66
2023/12/25 01:01:26;;;;;;;5.17;4.97;;;11.50;20.30;;;;;;5094354;28;20185;-67
2023/12/25 01:03:52;;;;;;;4.87;4.67;;;11.60;19.80;;;;;;5095022;28;20170;-67
2023/12/25 01:08:46;;;;;;;5.53;5.33;;;11.60;20.30;;;;;;4145262;22;20235;-51
2023/12/25 01:11:12;;;;;;;6.37;6.17;;;11.60;19.60;;;;;;5020244;28;20442;-48
2023/12/25 01:13:37;;;;;;;5.53;5.33;;;11.60;19.80;;;;;;5016694;28;20250;-53
2023/12/25 01:16:03;;;;;;;5.60;5.37;;;11.50;19.70;;;;;;5027418;28;20643;-50
2023/12/25 01:18:29;;;;;;;4.60;4.50;;;11.60;19.60;;;;;;5038695;28;20191;-53
2023/12/25 01:20:54;;;;;;;5.50;5.30;;;11.60;19.40;;;;;;5032303;28;20279;-52
2023/12/25 01:23:20;;;;;;;4.77;4.50;;;11.60;19.30;;;;;;5027787;28;20204;-52
2023/12/25 01:25:45;;;;;;;5.10;4.90;;;11.50;19.20;;;;;;5054808;28;20184;-53
2023/12/25 01:28:11;;;;;;;5.43;5.23;;;11.50;19.20;;;;;;5030424;28;20238;-53
2023/12/25 01:30:37;;;;;;;5.67;5.30;;;11.40;19.10;;;;;;5022073;28;20186;-51
2023/12/25 01:33:03;;;;;;;5.20;5.00;;;11.40;19.20;;;;;;5026514;28;20184;-50
2023/12/25 01:35:28;;;;;;;5.00;4.80;;;11.40;19.20;;;;;;5034534;28;20660;-50
2023/12/25 01:37:54;;;;;;;5.67;5.40;;;11.40;18.90;;;;;;5031351;28;20196;-50
2023/12/25 01:40:21;;;;;;;4.53;4.43;;;11.40;19.10;;;;;;5029009;28;20663;-51
2023/12/25 01:42:47;;;;;;;4.70;4.60;;;11.30;19.00;;;;;;5026609;28;20211;-50
2023/12/25 01:45:13;;;;;;;6.37;6.07;;;11.30;19.20;;;;;;5032042;28;20788;-51
2023/12/25 01:47:39;;;;;;;5.57;5.37;;;11.40;19.20;;;;;;5029527;28;20430;-50
2023/12/25 01:50:06;;;;;;;6.00;5.60;;;11.30;19.00;;;;;;5038193;28;20646;-59
2023/12/25 01:52:32;;;;;;;4.67;4.57;;;11.40;18.80;;;;;;5030617;28;20655;-59
2023/12/25 01:54:59;;;;;;;6.00;5.80;;;11.40;18.50;;;;;;5036882;28;20426;-59
2023/12/25 01:57:26;;;;;;;5.10;4.90;;;11.30;18.80;;;;;;5033530;28;20481;-58
2023/12/25 01:59:51;;;;;;;5.20;5.00;;;11.30;18.90;;;;;;5021727;28;20528;-59
2023/12/25 02:02:20;;;;;;;5.07;4.97;;;11.40;18.70;;;;;;5046045;28;20577;-49
2023/12/25 02:04:46;;;;;;;5.60;5.30;;;11.40;18.30;;;;;;5033807;28;20183;-54
2023/12/25 02:07:14;;;;;;;5.13;4.90;;;11.30;18.80;;;;;;5026777;28;20442;-52
2023/12/25 02:09:40;;;;;;;5.03;4.73;;;11.30;18.80;;;;;;5026989;28;20422;-51
2023/12/25 02:12:06;;;;;;;4.60;4.40;;;11.40;18.70;;;;;;5029640;28;20427;-50
2023/12/25 02:14:32;;;;;;;5.00;4.80;;;11.30;18.30;;;;;;5054305;28;20233;-52
2023/12/25 02:16:58;;;;;;;6.30;5.77;;;11.30;18.60;;;;;;5035693;28;20208;-49
2023/12/25 02:19:32;;;;;;;5.43;5.13;;;11.30;18.80;;;;;;5032852;28;20428;-50
2023/12/25 02:21:59;;;;;;;4.40;4.30;;;11.20;18.50;;;;;;5034961;28;20496;-51
2023/12/25 02:24:29;;;;;;;4.57;4.37;;;11.20;18.40;;;;;;5032360;28;20423;-50
2023/12/25 02:26:55;;;;;;;5.03;4.83;;;11.20;18.50;;;;;;5040861;28;20780;-50
2023/12/25 02:29:21;;;;;;;4.80;4.70;;;11.20;18.50;;;;;;5035234;28;20430;-52
2023/12/25 02:31:50;;;;;;;6.03;5.83;;;11.10;18.40;;;;;;5048774;28;20441;-52
2023/12/25 02:34:15;;;;;;;5.53;5.33;;;11.20;18.30;;;;;;5034071;28;20466;-59
2023/12/25 02:36:41;;;;;;;5.63;5.33;;;11.10;18.30;;;;;;5056827;28;20433;-58
2023/12/25 02:39:07;;;;;;;5.33;5.13;;;11.30;18.70;;;;;;5030987;28;20211;-59
2023/12/25 02:41:32;;;;;;;5.57;5.37;;;11.20;18.10;;;;;;5060308;28;20191;-59
2023/12/25 02:43:58;;;;;;;5.97;5.67;;;11.30;18.10;;;;;;5043823;28;20188;-59
2023/12/25 02:46:24;;;;;;;5.27;5.07;;;11.20;18.00;;;;;;5048618;28;20255;-59
2023/12/25 02:48:50;;;;;;;5.67;5.47;;;11.20;17.90;;;;;;5026954;28;20436;-58
2023/12/25 02:51:15;;;;;;;5.30;5.10;;;11.20;17.90;;;;;;5033265;28;20191;-58
2023/12/25 02:53:41;;;;;;;5.23;4.93;;;11.20;17.70;;;;;;5033529;28;20283;-58
2023/12/25 02:56:07;;;;;;;5.43;5.23;;;11.20;18.20;;;;;;5026970;28;20184;-58
2023/12/25 02:58:33;;;;;;;4.80;4.60;;;11.30;17.70;;;;;;5029357;28;20279;-58
2023/12/25 03:00:58;;;;;;;5.57;5.27;;;11.30;17.60;;;;;;5026328;28;20193;-58
2023/12/25 03:03:24;;;;;;;4.83;4.70;;;11.20;17.20;;;;;;5032667;28;20522;-58
2023/12/25 03:05:50;;;;;;;5.87;5.67;;;11.10;17.30;;;;;;5055924;28;20219;-58
2023/12/25 03:08:15;;;;;;;5.77;5.43;;;11.20;17.90;;;;;;5057080;28;20600;-58
2023/12/25 03:10:42;;;;;;;5.23;5.03;;;11.10;17.10;;;;;;5057292;28;20234;-58
2023/12/25 03:13:07;;;;;;;6.10;5.90;;;11.10;17.10;;;;;;5035459;28;20192;-58
2023/12/25 03:15:37;;;;;;;5.60;5.40;;;11.10;17.10;;;;;;5039725;28;20580;-59
2023/12/25 03:18:03;;;;;;;5.20;5.00;;;11.20;16.70;;;;;;5054238;28;20216;-59
2023/12/25 03:20:28;;;;;;;5.10;5.00;;;11.20;16.80;;;;;;5039463;28;20475;-59
2023/12/25 03:22:54;;;;;;;5.50;5.20;;;11.20;16.90;;;;;;5049040;28;20207;-59
2023/12/25 03:25:19;;;;;;;5.50;5.30;;;11.20;16.80;;;;;;5038051;28;20262;-59
2023/12/25 03:27:45;;;;;;;5.63;5.43;;;11.20;16.40;;;;;;5031256;28;20257;-59
2023/12/25 03:30:11;;;;;;;4.93;4.80;;;11.20;16.60;;;;;;5039561;28;20181;-59
2023/12/25 03:32:36;;;;;;;5.77;5.47;;;11.20;16.50;;;;;;5040873;28;20198;-58
2023/12/25 03:35:02;;;;;;;5.70;5.50;;;11.20;16.50;;;;;;5051116;28;20181;-59
2023/12/25 03:37:28;;;;;;;6.70;6.40;;;11.20;16.60;;;;;;5040814;28;20187;-58
2023/12/25 03:39:53;;;;;;;5.77;5.50;;;11.30;16.70;;;;;;5041238;28;20187;-53
2023/12/25 03:42:19;;;;;;;5.63;5.43;;;11.30;15.80;;;;;;5024998;28;20696;-54
2023/12/25 03:44:45;;;;;;;5.27;5.07;;;11.30;16.10;;;;;;5030687;28;20210;-53
2023/12/25 03:47:11;;;;;;;5.23;5.03;;;11.30;15.80;;;;;;5031542;28;20189;-52
2023/12/25 03:49:37;;;;;;;5.47;5.27;;;11.30;15.80;;;;;;5039177;28;20345;-52
2023/12/25 03:52:03;;;;;;;5.17;4.97;;;11.40;15.90;;;;;;5050074;28;20462;-53
2023/12/25 03:54:29;;;;;;;5.03;4.83;;;11.30;15.80;;;;;;5031668;28;20185;-53
2023/12/25 03:56:55;;;;;;;5.40;5.00;;;11.30;15.80;;;;;;5023232;28;20272;-54
2023/12/25 03:59:21;;;;;;;6.30;6.00;;;11.40;15.90;;;;;;5036597;28;20429;-52
2023/12/25 04:01:46;;;;;;;4.80;4.60;;;11.40;15.80;;;;;;5048446;28;20473;-52
2023/12/25 04:04:12;;;;;;;4.40;4.30;;;11.30;15.80;;;;;;5031644;28;20628;-50
2023/12/25 04:06:38;;;;;;;5.30;5.00;;;11.40;15.80;;;;;;5032109;28;20310;-53
2023/12/25 04:09:06;;;;;;;5.43;5.13;;;11.50;15.90;;;;;;5033212;28;20241;-51
2023/12/25 04:11:32;;;;;;;4.57;4.40;;;11.60;16.00;;;;;;5036102;28;20192;-54
2023/12/25 04:13:58;;;;;;;5.03;4.83;;;11.60;16.00;;;;;;5036076;28;20938;-50
2023/12/25 04:16:26;;;;;;;4.67;4.50;;;11.60;15.40;;;;;;5036330;28;20225;-51
2023/12/25 04:18:53;;;;;;;5.87;5.67;;;11.60;15.10;;;;;;5037621;28;20468;-50
2023/12/25 04:21:26;;;;;;;4.83;4.53;;;11.70;15.30;;;;;;5080461;22;20488;-80
2023/12/25 04:23:53;;;;;;;5.23;5.03;;;11.70;14.80;;;;;;5084330;28;20437;-81
2023/12/25 04:26:19;;;;;;;5.00;4.80;;;11.70;15.00;;;;;;5103388;28;20420;-80
2023/12/25 04:28:47;;;;;;;4.90;4.70;;;11.60;15.60;;;;;;5097441;28;20564;-80
2023/12/25 04:31:12;;;;;;;4.90;4.80;;;11.70;14.90;;;;;;5113100;28;20459;-80
2023/12/25 04:33:38;;;;;;;5.50;5.30;;;11.70;14.90;;;;;;5099353;28;20474;-80
2023/12/25 04:36:04;;;;;;;5.03;4.83;;;11.70;15.50;;;;;;5081911;28;20210;-80
2023/12/25 04:38:30;;;;;;;4.33;4.20;;;11.70;15.00;;;;;;5103907;28;20488;-80
2023/12/25 04:40:55;;;;;;;4.33;4.23;;;11.80;14.70;;;;;;5098147;28;20794;-80
2023/12/25 04:43:21;;;;;;;4.97;4.77;;;12.00;14.30;;;;;;5076253;28;20360;-80
2023/12/25 04:45:47;;;;;;;6.00;5.70;;;12.10;14.60;;;;;;5079759;28;20443;-80
2023/12/25 04:48:12;;;;;;;4.80;4.60;;;12.00;14.20;;;;;;5079873;28;20218;-80
2023/12/25 04:50:38;;;;;;;4.83;4.63;;;11.80;14.60;;;;;;5075808;28;20215;-80
2023/12/25 04:53:04;;;;;;;5.00;4.70;;;11.80;14.50;;;;;;5079382;28;20263;-81
2023/12/25 04:55:30;;;;;;;4.70;4.60;;;11.80;14.20;;;;;;5080302;28;20927;-80
2023/12/25 04:57:55;;;;;;;4.77;4.57;;;11.70;14.70;;;;;;5085359;28;20194;-80
2023/12/25 05:00:22;;;;;;;4.57;4.37;;;11.80;14.60;;;;;;5124521;28;20178;-80
2023/12/25 05:02:47;;;;;;;5.07;4.87;;;11.80;14.70;;;;;;5113821;28;20206;-80
2023/12/25 05:05:13;;;;;;;4.57;4.37;;;11.80;14.60;;;;;;5093819;28;20990;-80
2023/12/25 05:07:39;;;;;;;4.10;4.00;;;11.60;14.90;;;;;;5097357;28;20191;-80
2023/12/25 05:10:05;;;;;;;4.30;4.20;;;11.50;15.00;;;;;;5084489;28;20451;-80
2023/12/25 05:12:30;;;;;;;5.00;4.90;;;11.50;15.70;;;;;;5080112;28;20255;-80
2023/12/25 05:14:56;;;;;;;4.70;4.50;;;11.50;15.00;;;;;;5111731;28;20424;-80
2023/12/25 05:17:22;;;;;;;4.60;4.50;;;11.60;15.10;;;;;;5080762;28;20216;-80
2023/12/25 05:19:47;;;;;;;4.50;4.40;;;11.60;14.70;;;;;;5102117;28;20196;-80
2023/12/25 05:22:13;;;;;;;4.70;4.50;;;11.50;14.80;;;;;;5099360;28;20223;-81
2023/12/25 05:24:39;;;;;;;5.00;4.90;;;11.50;15.10;;;;;;5107808;28;20269;-80
2023/12/25 05:27:05;;;;;;;4.90;4.80;;;11.50;14.80;;;;;;5094219;28;20435;-80
2023/12/25 05:29:30;;;;;;;4.90;4.70;;;11.40;15.10;;;;;;5101268;28;20194;-80
2023/12/25 05:31:57;;;;;;;4.63;4.43;;;11.40;14.90;;;;;;5084193;28;20452;-80
2023/12/25 05:34:22;;;;;;;4.17;3.97;;;11.50;15.00;;;;;;5102373;28;20178;-80
2023/12/25 05:36:48;;;;;;;4.83;4.73;;;11.60;14.70;;;;;;5100006;28;20447;-80
2023/12/25 05:39:14;;;;;;;5.60;5.40;;;11.70;15.50;;;;;;5111538;28;20272;-80
2023/12/25 05:41:43;;;;;;;4.27;4.17;;;11.80;14.70;;;;;;5109999;28;20374;-80
2023/12/25 05:44:08;;;;;;;4.93;4.80;;;12.00;14.20;;;;;;5099897;28;20468;-81
2023/12/25 05:46:34;;;;;;;5.00;4.80;;;11.90;14.50;;;;;;5093330;28;20439;-80
2023/12/25 05:48:59;;;;;;;5.13;4.80;;;11.80;14.60;;;;;;5081510;28;20193;-80
2023/12/25 05:51:25;;;;;;;4.30;4.20;;;11.80;14.90;;;;;;5081906;28;20546;-80
2023/12/25 05:53:50;;;;;;;4.93;4.83;;;11.80;15.20;;;;;;5081205;28;20201;-81
2023/12/25 05:56:16;;;;;;;4.77;4.57;;;12.00;15.20;;;;;;5085127;28;20183;-80
2023/12/25 05:58:41;;;;;;;4.90;4.60;;;12.00;15.00;;;;;;5079025;28;20686;-81
2023/12/25 06:01:08;;;;;;;5.20;5.00;;;12.00;15.00;;;;;;5100325;28;20214;-81
2023/12/25 06:03:35;;;;;;;4.60;4.50;;;12.10;14.60;;;;;;5108527;28;20592;-81
2023/12/25 06:06:00;;;;;;;5.00;4.80;;;12.10;14.20;;;;;;5098647;28;20424;-81
2023/12/25 06:08:29;;;;;;;5.30;5.10;;;12.10;14.20;;;;;;5087403;28;20810;-81
2023/12/25 06:10:54;;;;;;;4.17;4.00;;;11.90;14.30;;;;;;5087091;28;20770;-81
2023/12/25 06:13:20;;;;;;;4.10;4.00;;;11.70;14.50;;;;;;5096737;28;20429;-80
2023/12/25 06:15:45;;;;;;;4.53;4.33;;;11.60;14.90;;;;;;5089964;28;20214;-81
2023/12/25 06:18:11;;;;;;;4.97;4.73;;;11.40;14.80;;;;;;5089722;28;20183;-81
2023/12/25 06:20:36;;;;;;;5.10;4.90;;;11.40;14.90;;;;;;5105039;28;20207;-81
2023/12/25 06:23:02;;;;;;;5.00;4.80;;;11.50;15.40;;;;;;5087751;28;20221;-80
2023/12/25 06:25:28;;;;;;;4.93;4.73;;;11.50;15.40;;;;;;5090296;28;20190;-80
2023/12/25 06:27:53;;;;;;;5.17;4.97;;;11.40;15.40;;;;;;5117770;28;20189;-80
2023/12/25 06:30:19;;;;;;;4.97;4.67;;;11.20;15.40;;;;;;5100292;28;20190;-80
2023/12/25 06:32:44;;;;;;;5.20;5.10;;;11.20;15.60;;;;;;5096118;28;20193;-80
2023/12/25 06:35:10;;;;;;;5.23;5.03;;;11.40;15.80;;;;;;5103410;28;20206;-80
2023/12/25 06:37:35;;;;;;;4.83;4.67;;;11.40;15.30;;;;;;5111740;28;20205;-80
2023/12/25 06:40:13;;;;;;;5.93;5.63;;;11.50;15.00;;;;;;5110638;28;20765;-82
2023/12/25 06:42:39;;;;;;;5.17;5.00;;;11.70;14.90;;;;;;5089254;28;20403;-83
2023/12/25 06:45:05;;;;;;;4.90;4.80;;;11.70;14.90;;;;;;5094907;28;20924;-82
2023/12/25 06:47:36;;;;;;;5.10;4.93;;;11.80;14.50;;;;;;5075265;28;20194;-83
2023/12/25 06:50:13;;;;;;;5.40;5.20;;;11.90;14.50;;;;;;5085518;28;20420;-82
2023/12/25 06:56:21;;;;;;;5.10;4.90;;;11.60;14.30;;;;;;5025207;28;20627;-81
2023/12/25 06:58:49;;;;;;;4.57;4.27;;;11.40;14.30;;;;;;5013605;28;20436;-81
2023/12/25 07:04:25;;;;;;;5.10;4.90;;;11.20;14.70;;;;;;5091483;28;20420;-81
2023/12/25 07:07:19;;;;;;;4.90;4.70;;;11.20;14.50;;;;;;5081855;28;20988;-80
2023/12/25 07:09:47;;;;;;;4.60;4.40;;;11.10;14.60;;;;;;5038542;28;20466;-80
2023/12/25 07:12:19;;;;;;;4.53;4.33;;;11.10;15.10;;;;;;5041266;28;20470;-80
2023/12/25 07:15:20;;;;;;;4.70;4.60;;;11.10;14.90;;;;;;5036710;28;20426;-80
2023/12/25 07:21:29;;;;;;;3.93;3.73;;;11.40;15.00;;;;;;5036763;28;20445;-80
2023/12/25 07:24:11;;;;;;;4.60;4.40;;;11.60;13.90;;;;;;5032128;28;21057;-81
2023/12/25 07:26:36;;;;;;;4.77;4.60;;;11.60;15.10;;;;;;5053900;28;20464;-83
2023/12/25 07:32:43;;;;;;;4.90;4.80;;;11.80;15.50;;;;;;5002564;23;20669;-61
2023/12/25 07:35:08;;;;;;;5.20;5.00;;;11.80;14.10;;;;;;4978212;28;20579;-61
2023/12/25 07:37:34;;;;;;;5.20;5.00;;;11.80;13.90;;;;;;4963401;28;20189;-61
2023/12/25 07:40:00;;;;;;;5.07;4.97;;;11.90;13.30;;;;;;4973367;28;20194;-61
2023/12/25 07:42:26;;;;;;;5.17;5.00;;;12.00;14.60;;;;;;4983683;28;20259;-60
2023/12/25 07:44:52;;;;;;;5.43;5.30;;;12.10;13.80;;;;;;4985226;28;20560;-60
2023/12/25 07:47:18;;;;;;;5.03;4.93;;;12.20;14.10;;;;;;4982731;28;20424;-60
2023/12/25 07:49:43;;;;;;;5.00;4.80;;;12.30;13.50;;;;;;4983233;28;20569;-60
2023/12/25 07:52:09;;;;;;;5.10;4.90;;;12.10;13.10;;;;;;4985861;28;20199;-61
2023/12/25 07:54:34;;;;;;;5.03;4.90;;;12.00;13.30;;;;;;4982169;28;20631;-60
2023/12/25 07:57:00;;;;;;;5.40;5.20;;;11.80;13.20;;;;;;4984326;28;20216;-61
2023/12/25 07:59:26;;;;;;;5.13;5.03;;;11.90;13.70;;;;;;4987162;28;20193;-61
2023/12/25 08:01:52;;;;;;;5.07;4.97;;;11.80;13.20;;;;;;4984197;28;20190;-60
2023/12/25 08:04:17;;;;;;;5.17;4.97;;;11.70;13.70;;;;;;4976541;28;20540;-60
2023/12/25 08:06:43;;;;;;;5.20;5.00;;;11.80;14.30;;;;;;4980267;28;20779;-61
2023/12/25 08:09:09;;;;;;;5.70;5.50;;;11.80;13.70;;;;;;4997246;28;20193;-61
2023/12/25 08:11:35;;;;;;;5.30;5.10;;;12.00;13.60;;;;;;4989652;28;20533;-61
2023/12/25 08:14:01;;;;;;;4.93;4.83;;;12.00;13.00;;;;;;4981674;28;20520;-61
2023/12/25 08:16:27;;;;;;;6.17;5.80;;;11.90;13.30;;;;;;4983880;28;20437;-61
2023/12/25 08:18:52;;;;;;;5.23;5.03;;;12.00;13.40;;;;;;4976372;28;20193;-61
2023/12/25 08:21:20;;;;;;;5.93;5.50;;;11.90;13.30;;;;;;4975930;28;20697;-61
2023/12/25 08:23:45;;;;;;;5.07;4.97;;;11.80;14.00;;;;;;4975679;28;20205;-61
2023/12/25 08:26:11;;;;;;;5.60;5.40;;;11.60;14.10;;;;;;4975993;28;20417;-61
2023/12/25 08:28:38;;;;;;;5.33;5.13;;;11.70;14.00;;;;;;4972527;28;20273;-59
2023/12/25 08:31:04;;;;;;;5.57;5.37;;;11.60;14.10;;;;;;4975289;28;20535;-59
2023/12/25 08:33:29;;;;;;;5.53;5.00;;;11.70;14.20;;;;;;4975478;28;20442;-60
2023/12/25 08:35:55;;;;;;;5.63;5.43;;;11.90;13.80;;;;;;4974449;28;20422;-59
2023/12/25 08:38:21;;;;;;;5.70;5.50;;;11.90;13.80;;;;;;4975343;28;20209;-59
2023/12/25 08:40:46;;;;;;;5.80;5.60;;;12.00;13.70;;;;;;4974823;28;20559;-59
2023/12/25 08:43:12;;;;;;;6.00;5.60;;;12.10;13.30;;;;;;4975260;28;20209;-61
2023/12/25 08:45:37;;;;;;;5.80;5.67;;;12.10;13.80;;;;;;4975518;28;20182;-61
2023/12/25 08:48:04;;;;;;;5.47;5.27;;;12.10;13.60;;;;;;4974950;28;20174;-61
2023/12/25 08:50:29;;;;;;;6.20;5.77;;;12.10;13.90;;;;;;4974481;28;20206;-61
2023/12/25 08:52:55;;;;;;;5.30;5.00;;;12.10;13.80;;;;;;4975679;28;20426;-61
2023/12/25 08:55:20;;;;;;;5.07;4.90;;;12.10;13.90;;;;;;4974768;28;20182;-61
2023/12/25 08:57:46;;;;;;;5.67;5.47;;;12.20;13.80;;;;;;4974899;28;20182;-61
2023/12/25 09:00:12;;;;;;;6.10;5.90;;;12.00;13.90;;;;;;4975012;28;20269;-61
2023/12/25 09:02:38;;;;;;;5.07;4.87;;;11.80;14.50;;;;;;4975598;28;20229;-60
2023/12/25 09:05:04;;;;;;;4.70;4.60;;;11.90;14.80;;;;;;4974695;28;20808;-60
2023/12/25 09:07:30;;;;;;;4.93;4.73;;;11.80;15.70;;;;;;4975327;28;20174;-61
2023/12/25 09:09:56;;;;;;;4.80;4.60;;;11.60;15.50;;;;;;4975155;28;20460;-61
2023/12/25 09:12:21;;;;;;;5.43;5.10;;;11.60;15.80;;;;;;4975413;28;20583;-61
2023/12/25 09:14:47;;;;;;;5.00;4.80;;;11.60;15.70;;;;;;4974299;28;20178;-61
2023/12/25 09:17:12;;;;;;;5.57;5.27;;;11.70;16.00;;;;;;4975235;28;20193;-60
2023/12/25 09:19:38;;;;;;;5.07;4.87;;;11.70;15.90;;;;;;4975221;28;20190;-60
2023/12/25 09:22:04;;;;;;;5.20;5.00;;;11.80;15.40;;;;;;4974411;28;20664;-60
2023/12/25 09:24:30;;;;;;;4.63;4.53;;;11.80;16.20;;;;;;4975618;28;20545;-60
2023/12/25 09:26:55;;;;;;;4.80;4.60;;;11.80;16.00;;;;;;4975161;28;20374;-60
2023/12/25 09:29:21;;;;;;;4.57;4.47;;;11.90;16.40;;;;;;4973735;28;20182;-60
2023/12/25 09:31:47;;;;;;;4.77;4.57;;;12.00;16.20;;;;;;4974984;28;20708;-60
2023/12/25 09:34:12;;;;;;;5.00;4.80;;;12.00;15.90;;;;;;4975110;28;20273;-60
2023/12/25 09:36:38;;;;;;;5.37;5.17;;;11.90;16.20;;;;;;4992005;28;20268;-61
2023/12/25 09:39:03;;;;;;;4.73;4.63;;;11.80;16.50;;;;;;4974742;28;20552;-61
2023/12/25 09:41:32;;;;;;;4.50;4.40;;;11.70;17.00;;;;;;4975009;28;20182;-61
2023/12/25 09:44:02;;;;;;;5.00;4.80;;;11.80;17.20;;;;;;4972625;28;20744;-61
2023/12/25 09:46:30;;;;;;;5.07;4.87;;;11.90;17.40;;;;;;4974087;28;20421;-60
2023/12/25 09:48:57;;;;;;;5.90;5.60;;;11.80;17.50;;;;;;4971647;28;20434;-60
2023/12/25 09:51:25;;;;;;;5.50;5.23;;;11.90;18.40;;;;;;4972749;28;20829;-60
2023/12/25 09:53:51;;;;;;;5.43;5.17;;;11.90;18.60;;;;;;4973952;28;20429;-61
2023/12/25 09:56:18;;;;;;;5.90;5.70;;;12.00;17.90;;;;;;4974577;28;20440;-60
2023/12/25 09:58:44;;;;;;;5.30;5.10;;;11.90;18.00;;;;;;4973004;28;20190;-61
2023/12/25 10:01:12;;;;;;;5.33;5.10;;;11.90;18.20;;;;;;4974538;28;20479;-60
2023/12/25 10:03:43;;;;;;;5.23;5.03;;;12.00;18.30;;;;;;4974387;28;20487;-61
2023/12/25 10:06:09;;;;;;;4.60;4.50;;;12.10;18.40;;;;;;4973496;28;20429;-61
2023/12/25 10:08:36;;;;;;;4.80;4.60;;;12.20;18.60;;;;;;4974306;28;20433;-60
2023/12/25 10:11:04;;;;;;;5.37;5.07;;;12.10;18.70;;;;;;4974531;28;20421;-60
2023/12/25 10:13:30;;;;;;;4.00;3.90;;;12.00;19.20;;;;;;4973692;28;20789;-60
2023/12/25 10:15:55;;;;;;;4.53;4.43;;;11.90;19.60;;;;;;4974212;28;20524;-60
2023/12/25 10:18:22;;;;;;;4.50;4.40;;;11.90;20.00;;;;;;4974188;28;20563;-60
2023/12/25 10:20:59;;;;;;;4.50;4.30;;;11.90;19.80;;;;;;4973142;28;20503;-60
2023/12/25 10:23:32;;;;;;;4.40;4.30;;;11.90;20.10;;;;;;4974232;28;20510;-60
2023/12/25 10:26:00;;;;;;;4.33;4.20;;;11.90;20.10;;;;;;4974113;28;20452;-60
2023/12/25 10:28:27;;;;;;;4.83;4.63;;;12.00;20.20;;;;;;4972896;28;20479;-60
2023/12/25 10:31:00;;;;;;;4.87;4.67;;;11.80;21.10;;;;;;4973653;28;20441;-60
2023/12/25 10:33:26;;;;;;;5.30;5.10;;;11.80;21.30;;;;;;4970141;28;20551;-60
2023/12/25 10:36:08;;;;;;;4.70;4.43;;;11.80;22.20;;;;;;4971576;28;20425;-60
2023/12/25 10:38:35;;;;;;;4.40;4.30;;;11.90;20.90;;;;;;4971748;28;20464;-60
2023/12/25 10:41:19;;;;;;;4.50;4.40;;;11.90;21.00;;;;;;4971770;28;20430;-60
2023/12/25 10:43:56;;;;;;;4.80;4.60;;;12.00;21.20;;;;;;4970336;28;20468;-60
2023/12/25 10:46:23;;;;;;;4.33;4.17;;;12.00;21.40;;;;;;4990247;28;20425;-60
2023/12/25 10:48:53;;;;;;;4.87;4.60;;;12.10;21.40;;;;;;4971994;28;20491;-59
2023/12/25 10:51:28;;;;;;;4.90;4.80;;;12.20;21.30;;;;;;4969166;28;20512;-60
2023/12/25 10:54:00;;;;;;;4.70;4.60;;;12.20;21.20;;;;;;4984668;28;20460;-60
2023/12/25 10:56:27;;;;;;;5.60;5.30;;;12.30;21.30;;;;;;4972982;28;20422;-60
2023/12/25 10:58:57;;;;;;;5.57;5.37;;;12.30;20.80;;;;;;4965673;28;20426;-60
2023/12/25 11:01:25;;;;;;;4.70;4.60;;;12.30;20.90;;;;;;4971116;28;20433;-60
2023/12/25 11:03:52;;;;;;;4.93;4.53;;;12.30;21.20;;;;;;4969192;28;20466;-59
2023/12/25 11:06:18;;;;;;;5.83;5.53;;;12.40;21.30;;;;;;4990799;28;20785;-59
2023/12/25 11:08:44;;;;;;;5.43;5.23;;;12.40;21.40;;;;;;4972835;28;20433;-59
2023/12/25 11:11:13;;;;;;;5.03;4.93;;;12.50;21.60;;;;;;4985684;28;20432;-59
2023/12/25 11:13:40;;;;;;;4.70;4.50;;;12.70;21.30;;;;;;4975190;28;20806;-59
2023/12/25 11:16:07;;;;;;;5.30;5.10;;;12.80;21.10;;;;;;4984401;28;20932;-59
2023/12/25 11:18:36;;;;;;;6.10;5.80;;;12.70;21.10;;;;;;4980748;28;20527;-59
2023/12/25 11:21:08;;;;;;;4.97;4.87;;;12.80;21.20;;;;;;4976996;28;20460;-61
2023/12/25 11:23:41;;;;;;;5.33;5.17;;;12.70;21.40;;;;;;4974479;28;20571;-59
2023/12/25 11:26:09;;;;;;;5.03;4.93;;;12.80;21.30;;;;;;4976519;28;20487;-60
2023/12/25 11:28:37;;;;;;;5.10;4.90;;;12.90;21.20;;;;;;4986428;28;20429;-60
2023/12/25 11:31:04;;;;;;;4.67;4.57;;;13.00;21.10;;;;;;4981571;28;20440;-61
2023/12/25 11:33:41;;;;;;;5.77;5.43;;;12.90;21.30;;;;;;4986487;28;20433;-62
2023/12/25 11:36:17;;;;;;;4.73;4.63;;;12.90;21.50;;;;;;4982760;28;20527;-64
2023/12/25 11:38:45;;;;;;;4.73;4.63;;;12.90;21.50;;;;;;4986852;28;20791;-62
2023/12/25 11:41:18;;;;;;;4.93;4.83;;;12.90;21.60;;;;;;4977947;28;20441;-59
2023/12/25 11:43:47;;;;;;;5.13;4.93;;;12.80;21.60;;;;;;4989352;28;20629;-60
2023/12/25 11:46:19;;;;;;;5.27;5.00;;;12.90;21.60;;;;;;4976978;28;20424;-59
2023/12/25 11:48:57;;;;;;;5.20;5.00;;;12.90;21.40;;;;;;4973318;28;20441;-59
2023/12/25 11:51:25;;;;;;;4.77;4.63;;;12.80;21.60;;;;;;4977056;28;20804;-60
2023/12/25 11:53:56;;;;;;;4.80;4.60;;;12.80;21.60;;;;;;4987870;28;20441;-60
2023/12/25 11:56:21;;;;;;;4.40;4.30;;;12.80;21.80;;;;;;4979549;28;20440;-60
2023/12/25 11:58:48;;;;;;;4.70;4.60;;;12.80;21.60;;;;;;4978542;28;20425;-60
2023/12/25 12:01:17;;;;;;;4.43;4.23;;;12.80;21.50;;;;;;4973703;28;20202;-59
2023/12/25 12:03:48;;;;;;;4.67;4.53;;;12.80;21.60;;;;;;4977857;28;20822;-60
2023/12/25 12:06:15;;;;;;;3.90;3.80;;;12.70;22.00;;;;;;4991927;28;20447;-59
2023/12/25 12:08:42;;;;;;;4.93;4.57;;;12.60;22.10;;;;;;4984158;28;20468;-59
2023/12/25 12:11:13;;;;;;;4.50;4.30;;;12.50;22.90;;;;;;4983530;28;20478;-59
2023/12/25 12:13:39;;;;;;;4.53;4.43;;;12.40;22.80;;;;;;4972515;28;20475;-59
2023/12/25 12:16:05;;;;;;;4.63;4.43;;;12.40;22.80;;;;;;4980003;28;20483;-59
2023/12/25 12:18:31;;;;;;;4.70;4.60;;;12.50;22.60;;;;;;4977975;28;20504;-59
2023/12/25 12:20:58;;;;;;;4.90;4.80;;;12.50;22.70;;;;;;4984544;28;20528;-59
2023/12/25 12:23:24;;;;;;;5.00;4.90;;;12.60;22.50;;;;;;4980435;28;20205;-59
2023/12/25 12:25:50;;;;;;;4.90;4.80;;;12.50;22.50;;;;;;5005595;28;20440;-61
2023/12/25 12:28:16;;;;;;;5.40;5.20;;;12.50;23.30;;;;;;4973933;28;20429;-62
2023/12/25 12:30:42;;;;;;;5.03;4.83;;;12.50;22.70;;;;;;4967888;28;20178;-62
2023/12/25 12:33:12;;;;;;;4.90;4.70;;;12.50;22.80;;;;;;4983334;28;20771;-62
2023/12/25 12:35:41;;;;;;;5.13;4.93;;;12.50;23.20;;;;;;4977827;28;20480;-62
2023/12/25 12:38:10;;;;;;;5.30;5.10;;;12.40;23.30;;;;;;4983656;28;20413;-61
2023/12/25 12:40:35;;;;;;;4.60;4.50;;;12.40;23.60;;;;;;4983820;28;20432;-59
2023/12/25 12:43:01;;;;;;;4.43;4.33;;;12.40;23.70;;;;;;4982544;28;20483;-59
2023/12/25 12:45:27;;;;;;;4.67;4.57;;;12.40;24.00;;;;;;4982571;28;20217;-57
2023/12/25 12:47:54;;;;;;;4.73;4.63;;;12.40;24.10;;;;;;4980251;28;20193;-58
2023/12/25 12:50:20;;;;;;;5.20;5.03;;;12.40;24.70;;;;;;4977759;28;20220;-58
2023/12/25 12:52:47;;;;;;;4.27;4.17;;;12.40;24.20;;;;;;4976074;28;20957;-57
2023/12/25 12:55:15;;;;;;;4.97;4.67;;;12.50;24.00;;;;;;4984430;28;20205;-58
2023/12/25 12:57:42;;;;;;;4.20;4.10;;;12.60;24.00;;;;;;4966302;28;20953;-57
2023/12/25 13:00:10;;;;;;;4.83;4.70;;;12.70;23.60;;;;;;4979376;28;20436;-58
2023/12/25 13:02:37;;;;;;;4.53;4.43;;;12.80;23.50;;;;;;4979161;28;20512;-58